createdAt,value
2022-09-28T00:00:08.028Z,24.57
2022-09-28T00:01:08.581Z,24.58
2022-09-28T00:02:09.246Z,24.60
2022-09-28T00:03:09.979Z,24.58
2022-09-28T00:04:10.562Z,24.61
2022-09-28T00:05:11.139Z,24.62
2022-09-28T00:06:11.695Z,24.65
2022-09-28T00:07:12.253Z,24.71
2022-09-28T00:08:13.142Z,24.80
2022-09-28T00:09:13.795Z,24.84
2022-09-28T00:10:14.388Z,24.85
2022-09-28T00:11:14.944Z,24.85
2022-09-28T00:12:15.495Z,24.87
2022-09-28T00:13:16.114Z,24.87
2022-09-28T00:14:16.673Z,24.88
2022-09-28T00:15:17.226Z,24.90
2022-09-28T00:16:17.837Z,24.87
2022-09-28T00:17:18.427Z,24.88
2022-09-28T00:18:19.113Z,24.88
2022-09-28T00:19:19.663Z,24.84
2022-09-28T00:20:20.231Z,24.84
2022-09-28T00:21:20.774Z,24.85
2022-09-28T00:22:21.324Z,24.85
2022-09-28T00:23:21.945Z,24.84
2022-09-28T00:24:27.324Z,24.85
2022-09-28T00:25:23.404Z,24.87
2022-09-28T00:26:23.944Z,24.84
2022-09-28T00:27:24.498Z,24.84
2022-09-28T00:28:25.090Z,24.85
2022-09-28T00:29:25.630Z,24.84
2022-09-28T00:30:26.175Z,24.84
2022-09-28T00:31:26.796Z,24.85
2022-09-28T00:32:27.373Z,24.87
2022-09-28T00:33:27.992Z,24.85
2022-09-28T00:34:28.544Z,24.85
2022-09-28T00:35:29.111Z,24.84
2022-09-28T00:36:29.654Z,24.84
2022-09-28T00:37:30.207Z,24.83
2022-09-28T00:38:30.792Z,24.84
2022-09-28T00:39:31.335Z,24.84
2022-09-28T00:40:32.008Z,24.83
2022-09-28T00:41:32.589Z,24.85
2022-09-28T00:42:33.148Z,24.85
2022-09-28T00:43:33.919Z,24.84
2022-09-28T00:44:34.474Z,24.84
2022-09-28T00:45:35.148Z,24.83
2022-09-28T00:46:35.748Z,24.84
2022-09-28T00:47:36.297Z,24.83
2022-09-28T00:48:36.947Z,24.84
2022-09-28T00:49:37.503Z,24.87
2022-09-28T00:50:38.080Z,24.87
2022-09-28T00:51:38.631Z,24.90
2022-09-28T00:52:39.176Z,24.88
2022-09-28T00:53:39.749Z,24.91
2022-09-28T00:54:40.300Z,24.95
2022-09-28T00:55:40.846Z,24.99
2022-09-28T00:56:41.393Z,25.02
2022-09-28T00:57:41.944Z,25.05
2022-09-28T00:58:42.598Z,25.08
2022-09-28T00:59:43.162Z,25.10
2022-09-28T01:00:43.765Z,25.15
2022-09-28T01:01:44.440Z,25.20
2022-09-28T01:02:45.061Z,25.23
2022-09-28T01:03:45.680Z,25.23
2022-09-28T01:04:46.276Z,25.24
2022-09-28T01:05:46.906Z,25.27
2022-09-28T01:06:47.450Z,25.32
2022-09-28T01:07:47.992Z,25.35
2022-09-28T01:08:48.568Z,25.38
2022-09-28T01:09:49.111Z,25.43
2022-09-28T01:10:49.657Z,25.50
2022-09-28T01:11:50.209Z,25.58
2022-09-28T01:12:50.761Z,25.61
2022-09-28T01:13:51.481Z,25.67
2022-09-28T01:14:52.027Z,25.80
2022-09-28T01:15:52.697Z,25.94
2022-09-28T01:16:53.309Z,26.02
2022-09-28T01:17:53.862Z,26.09
2022-09-28T01:18:54.503Z,26.13
2022-09-28T01:19:55.059Z,26.13
2022-09-28T01:20:55.627Z,26.17
2022-09-28T01:21:56.169Z,26.15
2022-09-28T01:22:56.716Z,26.15
2022-09-28T01:23:57.326Z,26.13
2022-09-28T01:24:57.876Z,26.10
2022-09-28T01:25:58.423Z,26.09
2022-09-28T01:26:58.981Z,26.06
2022-09-28T01:27:59.537Z,26.02
2022-09-28T01:29:00.138Z,26.02
2022-09-28T01:30:00.691Z,26.01
2022-09-28T01:31:01.233Z,26.01
2022-09-28T01:32:01.876Z,25.97
2022-09-28T01:33:02.483Z,25.98
2022-09-28T01:34:03.067Z,25.97
2022-09-28T01:35:03.626Z,25.95
2022-09-28T01:36:04.209Z,25.98
2022-09-28T01:37:04.764Z,25.98
2022-09-28T01:38:05.313Z,26.05
2022-09-28T01:39:05.894Z,26.01
2022-09-28T01:40:06.446Z,26.05
2022-09-28T01:41:07.008Z,26.05
2022-09-28T01:42:07.556Z,26.06
2022-09-28T01:43:08.112Z,26.06
2022-09-28T01:44:08.870Z,26.09
2022-09-28T01:45:09.419Z,26.07
2022-09-28T01:46:10.060Z,26.12
2022-09-28T01:47:10.672Z,26.12
2022-09-28T01:48:11.223Z,26.09
2022-09-28T01:49:11.894Z,26.12
2022-09-28T01:50:12.443Z,26.12
2022-09-28T01:51:13.022Z,26.07
2022-09-28T01:52:13.567Z,26.12
2022-09-28T01:53:14.117Z,26.10
2022-09-28T01:54:14.712Z,26.09
2022-09-28T01:55:15.319Z,26.07
2022-09-28T01:56:15.865Z,26.06
2022-09-28T01:57:16.419Z,26.07
2022-09-28T01:58:16.971Z,26.07
2022-09-28T01:59:17.828Z,26.05
2022-09-28T02:00:18.478Z,26.06
2022-09-28T02:01:19.042Z,26.02
2022-09-28T02:02:19.749Z,26.06
2022-09-28T02:03:20.355Z,26.07
2022-09-28T02:04:20.949Z,26.09
2022-09-28T02:05:21.537Z,26.10
2022-09-28T02:06:22.102Z,26.13
2022-09-28T02:07:22.652Z,26.18
2022-09-28T02:08:23.201Z,26.20
2022-09-28T02:09:23.775Z,26.25
2022-09-28T02:10:24.324Z,26.29
2022-09-28T02:11:24.866Z,26.30
2022-09-28T02:12:25.417Z,26.33
2022-09-28T02:13:25.974Z,26.33
2022-09-28T02:14:26.591Z,26.35
2022-09-28T02:15:27.154Z,26.33
2022-09-28T02:16:27.752Z,26.36
2022-09-28T02:17:28.311Z,26.32
2022-09-28T02:18:28.865Z,26.29
2022-09-28T02:19:29.470Z,26.30
2022-09-28T02:20:30.022Z,26.29
2022-09-28T02:21:30.608Z,26.25
2022-09-28T02:22:31.164Z,26.23
2022-09-28T02:23:31.704Z,26.20
2022-09-28T02:24:32.486Z,26.17
2022-09-28T02:25:33.035Z,26.15
2022-09-28T02:26:33.595Z,26.13
2022-09-28T02:27:34.139Z,26.10
2022-09-28T02:28:34.690Z,26.09
2022-09-28T02:29:35.259Z,26.05
2022-09-28T02:30:35.820Z,26.02
2022-09-28T02:31:36.421Z,26.01
2022-09-28T02:32:37.000Z,25.97
2022-09-28T02:33:37.557Z,25.94
2022-09-28T02:34:38.141Z,25.95
2022-09-28T02:35:38.692Z,25.91
2022-09-28T02:36:39.263Z,25.90
2022-09-28T02:37:39.811Z,25.87
2022-09-28T02:38:40.369Z,25.90
2022-09-28T02:39:40.955Z,25.88
2022-09-28T02:40:41.554Z,25.85
2022-09-28T02:41:42.129Z,25.83
2022-09-28T02:42:42.677Z,25.88
2022-09-28T02:43:43.234Z,25.85
2022-09-28T02:44:44.005Z,25.88
2022-09-28T02:45:44.641Z,25.88
2022-09-28T02:46:45.232Z,25.90
2022-09-28T02:47:45.770Z,25.88
2022-09-28T02:48:55.786Z,25.90
2022-09-28T02:49:47.290Z,25.91
2022-09-28T02:50:47.839Z,25.95
2022-09-28T02:51:48.413Z,25.98
2022-09-28T02:52:48.964Z,26.01
2022-09-28T02:53:49.527Z,26.05
2022-09-28T02:54:50.171Z,26.06
2022-09-28T02:55:50.721Z,26.05
2022-09-28T02:56:51.272Z,26.06
2022-09-28T02:57:51.817Z,26.05
2022-09-28T02:58:52.367Z,26.06
2022-09-28T02:59:52.991Z,26.06
2022-09-28T03:00:53.606Z,26.05
2022-09-28T03:01:54.286Z,26.05
2022-09-28T03:02:54.888Z,26.02
2022-09-28T03:03:55.517Z,26.05
2022-09-28T03:04:56.228Z,26.02
2022-09-28T03:05:56.775Z,26.05
2022-09-28T03:06:57.353Z,26.05
2022-09-28T03:07:57.910Z,26.02
2022-09-28T03:08:58.459Z,26.02
2022-09-28T03:09:59.044Z,25.99
2022-09-28T03:10:59.586Z,26.01
2022-09-28T03:12:00.129Z,26.01
2022-09-28T03:13:00.668Z,26.01
2022-09-28T03:14:01.215Z,26.02
2022-09-28T03:15:01.840Z,26.02
2022-09-28T03:16:02.449Z,26.05
2022-09-28T03:17:03.048Z,26.06
2022-09-28T03:18:03.601Z,26.05
2022-09-28T03:19:04.139Z,26.06
2022-09-28T03:20:04.787Z,26.06
2022-09-28T03:21:05.342Z,26.06
2022-09-28T03:22:05.912Z,26.07
2022-09-28T03:23:23.858Z,26.07
2022-09-28T03:24:07.374Z,26.07
2022-09-28T03:25:07.945Z,26.09
2022-09-28T03:26:08.487Z,26.05
2022-09-28T03:27:09.094Z,26.09
2022-09-28T03:28:09.638Z,26.10
2022-09-28T03:29:10.290Z,26.09
2022-09-28T03:30:10.943Z,26.06
2022-09-28T03:31:11.508Z,26.09
2022-09-28T03:32:12.077Z,26.09
2022-09-28T03:33:12.629Z,26.09
2022-09-28T03:34:13.179Z,26.09
2022-09-28T03:35:13.754Z,26.09
2022-09-28T03:36:14.315Z,26.12
2022-09-28T03:37:14.899Z,26.15
2022-09-28T03:38:15.451Z,26.13
2022-09-28T03:39:16.090Z,26.13
2022-09-28T03:40:16.800Z,26.15
2022-09-28T03:41:17.387Z,26.12
2022-09-28T03:42:17.938Z,26.10
2022-09-28T03:43:18.486Z,26.10
2022-09-28T03:44:19.027Z,26.10
2022-09-28T03:45:19.693Z,26.07
2022-09-28T03:46:20.307Z,26.09
2022-09-28T03:47:20.894Z,26.06
2022-09-28T03:48:24.514Z,26.09
2022-09-28T03:49:22.382Z,26.09
2022-09-28T03:50:23.039Z,26.02
2022-09-28T03:51:23.587Z,26.05
2022-09-28T03:52:24.163Z,26.05
2022-09-28T03:53:24.666Z,26.01
2022-09-28T03:54:25.217Z,26.01
2022-09-28T03:55:25.796Z,26.01
2022-09-28T03:56:26.353Z,26.02
2022-09-28T03:57:26.874Z,25.98
2022-09-28T03:58:27.434Z,25.98
2022-09-28T03:59:27.936Z,25.95
2022-09-28T04:00:28.598Z,25.97
2022-09-28T04:01:29.162Z,25.92
2022-09-28T04:02:29.804Z,25.94
2022-09-28T04:03:30.344Z,25.92
2022-09-28T04:04:30.839Z,25.91
2022-09-28T04:05:31.845Z,25.92
2022-09-28T04:06:32.335Z,25.94
2022-09-28T04:07:32.851Z,25.94
2022-09-28T04:08:33.351Z,25.98
2022-09-28T04:09:33.862Z,25.99
2022-09-28T04:10:34.388Z,25.99
2022-09-28T04:11:53.136Z,25.99
2022-09-28T04:12:35.747Z,25.99
2022-09-28T04:13:36.248Z,25.99
2022-09-28T04:14:36.753Z,26.01
2022-09-28T04:15:37.267Z,25.99
2022-09-28T04:16:37.821Z,25.98
2022-09-28T04:17:40.277Z,25.99
2022-09-28T04:18:38.887Z,26.02
2022-09-28T04:19:39.384Z,26.01
2022-09-28T04:20:39.983Z,26.05
2022-09-28T04:21:40.480Z,26.02
2022-09-28T04:22:41.495Z,26.02
2022-09-28T04:23:41.997Z,26.07
2022-09-28T04:24:42.499Z,26.07
2022-09-28T04:25:43.027Z,26.10
2022-09-28T04:26:43.521Z,26.10
2022-09-28T04:27:45.161Z,26.10
2022-09-28T04:28:44.960Z,26.09
2022-09-28T04:29:45.457Z,26.10
2022-09-28T04:30:46.757Z,26.13
2022-09-28T04:31:47.309Z,26.13
2022-09-28T04:32:47.848Z,26.17
2022-09-28T04:33:48.336Z,26.18
2022-09-28T04:34:49.336Z,26.15
2022-09-28T04:35:49.867Z,26.18
2022-09-28T04:36:50.369Z,26.20
2022-09-28T04:37:50.889Z,26.20
2022-09-28T04:38:53.625Z,26.21
2022-09-28T04:39:52.285Z,26.20
2022-09-28T04:40:53.362Z,26.26
2022-09-28T04:41:53.387Z,26.29
2022-09-28T04:42:54.699Z,26.33
2022-09-28T04:43:54.723Z,26.35
2022-09-28T04:44:55.212Z,26.37
2022-09-28T04:45:56.415Z,26.37
2022-09-28T04:46:56.659Z,26.43
2022-09-28T04:47:58.717Z,26.43
2022-09-28T04:48:57.896Z,26.43
2022-09-28T04:49:58.388Z,26.47
2022-09-28T04:50:58.939Z,26.57
2022-09-28T04:51:59.431Z,26.73
2022-09-28T04:53:00.450Z,26.77
2022-09-28T04:54:00.991Z,26.77
2022-09-28T04:55:01.511Z,26.77
2022-09-28T04:56:02.073Z,26.89
2022-09-28T04:57:10.216Z,27.09
2022-09-28T04:58:03.256Z,27.25
2022-09-28T04:59:03.766Z,27.47
2022-09-28T05:00:04.272Z,27.60
2022-09-28T05:01:05.101Z,27.72
2022-09-28T05:02:07.884Z,27.90
2022-09-28T05:03:10.852Z,28.06
2022-09-28T05:04:07.196Z,28.21
2022-09-28T05:05:08.809Z,28.25
2022-09-28T05:06:24.727Z,28.34
2022-09-28T05:07:09.003Z,28.34
2022-09-28T05:08:10.643Z,28.24
2022-09-28T05:09:10.469Z,28.02
2022-09-28T05:10:11.020Z,27.82
2022-09-28T05:11:37.025Z,27.63
2022-09-28T05:12:12.448Z,27.49
2022-09-28T05:13:12.970Z,27.36
2022-09-28T05:14:24.473Z,27.24
2022-09-28T05:15:14.384Z,27.13
2022-09-28T05:16:16.184Z,27.07
2022-09-28T05:17:15.549Z,26.99
2022-09-28T05:18:27.889Z,26.95
2022-09-28T05:19:17.947Z,26.91
2022-09-28T05:20:19.759Z,26.89
2022-09-28T05:21:20.962Z,26.85
2022-09-28T05:22:20.330Z,26.85
2022-09-28T05:23:30.068Z,26.80
2022-09-28T05:24:30.870Z,26.81
2022-09-28T05:25:22.163Z,26.77
2022-09-28T05:26:22.656Z,26.77
2022-09-28T05:27:23.682Z,26.76
2022-09-28T05:28:24.192Z,26.77
2022-09-28T05:29:25.803Z,26.77
2022-09-28T05:30:25.523Z,26.76
2022-09-28T05:31:26.075Z,26.77
2022-09-28T05:32:26.623Z,26.76
2022-09-28T05:33:27.121Z,26.76
2022-09-28T05:34:27.619Z,26.80
2022-09-28T05:35:28.117Z,26.80
2022-09-28T05:36:28.626Z,26.76
2022-09-28T05:37:29.153Z,26.76
2022-09-28T05:38:29.656Z,26.75
2022-09-28T05:39:30.176Z,26.73
2022-09-28T05:40:30.844Z,26.77
2022-09-28T05:41:31.370Z,26.73
2022-09-28T05:42:31.897Z,26.76
2022-09-28T05:43:32.389Z,26.80
2022-09-28T05:44:32.883Z,26.81
2022-09-28T05:45:33.476Z,26.80
2022-09-28T05:46:34.029Z,26.84
2022-09-28T05:47:34.614Z,26.87
2022-09-28T05:48:35.123Z,26.85
2022-09-28T05:49:35.720Z,26.89
2022-09-28T05:50:36.238Z,26.94
2022-09-28T05:51:36.739Z,26.99
2022-09-28T05:52:37.263Z,27.02
2022-09-28T05:53:37.763Z,27.02
2022-09-28T05:54:38.290Z,27.06
2022-09-28T05:55:38.815Z,27.10
2022-09-28T05:56:39.318Z,27.12
2022-09-28T05:57:39.920Z,27.12
2022-09-28T05:58:40.429Z,27.18
2022-09-28T05:59:42.668Z,27.22
2022-09-28T06:00:42.178Z,27.28
2022-09-28T06:01:42.840Z,27.34
2022-09-28T06:02:43.785Z,27.37
2022-09-28T06:03:44.282Z,27.43
2022-09-28T06:04:45.127Z,27.43
2022-09-28T06:05:45.655Z,27.49
2022-09-28T06:06:46.145Z,27.51
2022-09-28T06:07:46.707Z,27.54
2022-09-28T06:08:47.319Z,27.62
2022-09-28T06:09:47.849Z,27.66
2022-09-28T06:10:48.356Z,27.74
2022-09-28T06:11:49.983Z,27.78
2022-09-28T06:12:49.708Z,27.84
2022-09-28T06:13:50.206Z,27.92
2022-09-28T06:14:50.707Z,27.94
2022-09-28T06:15:51.203Z,27.96
2022-09-28T06:16:51.746Z,27.99
2022-09-28T06:17:52.481Z,28.03
2022-09-28T06:19:03.284Z,28.06
2022-09-28T06:19:53.766Z,28.09
2022-09-28T06:20:54.262Z,28.14
2022-09-28T06:21:54.761Z,28.19
2022-09-28T06:22:55.299Z,28.21
2022-09-28T06:23:55.795Z,28.24
2022-09-28T06:24:56.309Z,28.29
2022-09-28T06:26:00.709Z,28.29
2022-09-28T06:27:00.403Z,28.30
2022-09-28T06:27:58.455Z,28.34
2022-09-28T06:28:58.950Z,28.34
2022-09-28T06:29:59.448Z,28.37
2022-09-28T06:31:00.046Z,28.43
2022-09-28T06:32:00.594Z,28.48
2022-09-28T06:33:01.120Z,28.55
2022-09-28T06:34:01.607Z,28.58
2022-09-28T06:35:02.112Z,28.64
2022-09-28T06:36:03.109Z,28.74
2022-09-28T06:37:03.596Z,28.74
2022-09-28T06:38:04.137Z,28.81
2022-09-28T06:39:04.637Z,28.67
2022-09-28T06:40:05.241Z,28.71
2022-09-28T06:41:05.807Z,28.77
2022-09-28T06:42:06.362Z,28.83
2022-09-28T06:43:08.947Z,28.92
2022-09-28T06:44:07.590Z,28.96
2022-09-28T06:45:08.098Z,29.05
2022-09-28T06:46:08.722Z,29.15
2022-09-28T06:47:09.274Z,29.26
2022-09-28T06:48:10.841Z,29.31
2022-09-28T06:49:10.338Z,29.41
2022-09-28T06:50:10.832Z,29.46
2022-09-28T06:51:12.440Z,29.49
2022-09-28T06:52:13.199Z,29.63
2022-09-28T06:53:12.724Z,29.73
2022-09-28T06:54:13.218Z,29.78
2022-09-28T06:55:14.237Z,29.90
2022-09-28T06:56:14.736Z,30.00
2022-09-28T06:57:15.234Z,30.01
2022-09-28T06:58:16.265Z,30.08
2022-09-28T06:59:20.873Z,30.08
2022-09-28T07:00:17.619Z,30.15
2022-09-28T07:01:18.197Z,30.19
2022-09-28T07:02:21.494Z,30.22
2022-09-28T07:03:19.579Z,30.26
2022-09-28T07:04:21.535Z,30.34
2022-09-28T07:05:21.046Z,30.32
2022-09-28T07:06:24.572Z,30.27
2022-09-28T07:07:22.576Z,30.31
2022-09-28T07:08:23.133Z,30.42
2022-09-28T07:09:33.154Z,30.46
2022-09-28T07:10:24.516Z,30.54
2022-09-28T07:11:25.349Z,30.39
2022-09-28T07:12:25.846Z,30.51
2022-09-28T07:13:48.840Z,30.62
2022-09-28T07:14:44.392Z,30.77
2022-09-28T07:15:28.579Z,30.72
2022-09-28T07:16:48.826Z,30.73
2022-09-28T07:17:30.349Z,30.86
2022-09-28T07:18:30.669Z,30.75
2022-09-28T07:19:31.229Z,30.77
2022-09-28T07:20:33.309Z,30.65
2022-09-28T07:21:32.749Z,30.47
2022-09-28T07:22:42.433Z,30.58
2022-09-28T07:23:43.577Z,30.73
2022-09-28T07:24:35.048Z,30.58
2022-09-28T07:25:35.643Z,30.62
2022-09-28T07:26:36.243Z,30.54
2022-09-28T07:27:58.750Z,30.54
2022-09-28T07:28:51.445Z,30.39
2022-09-28T07:29:38.740Z,30.70
2022-09-28T07:30:39.507Z,30.95
2022-09-28T07:31:40.068Z,30.91
2022-09-28T07:32:41.067Z,30.88
2022-09-28T07:33:41.775Z,30.95
2022-09-28T07:36:32.249Z,30.70
2022-09-28T07:37:34.874Z,30.57
2022-09-28T07:38:36.345Z,30.34
2022-09-28T07:39:34.434Z,30.11
2022-09-28T07:40:35.276Z,30.01
2022-09-28T07:41:35.807Z,29.97
2022-09-28T07:42:36.449Z,29.85
2022-09-28T07:43:40.158Z,29.76
2022-09-28T07:44:47.972Z,29.70
2022-09-28T07:45:38.770Z,29.78
2022-09-28T07:46:40.532Z,30.04
2022-09-28T07:47:40.084Z,30.32
2022-09-28T07:48:40.692Z,30.55
2022-09-28T07:49:41.299Z,30.62
2022-09-28T07:50:41.825Z,30.77
2022-09-28T07:51:42.321Z,31.02
2022-09-28T07:52:43.176Z,31.17
2022-09-28T07:53:43.723Z,31.35
2022-09-28T07:54:44.248Z,31.58
2022-09-28T07:55:46.587Z,31.63
2022-09-28T07:56:45.609Z,31.41
2022-09-28T07:57:46.106Z,31.39
2022-09-28T07:58:46.619Z,31.44
2022-09-28T07:59:47.371Z,31.36
2022-09-28T08:00:47.924Z,31.17
2022-09-28T08:01:48.454Z,30.97
2022-09-28T08:02:49.632Z,30.67
2022-09-28T08:03:49.637Z,30.54
2022-09-28T08:04:56.159Z,30.31
2022-09-28T08:06:04.376Z,30.11
2022-09-28T08:07:06.758Z,29.95
2022-09-28T08:07:52.426Z,29.80
2022-09-28T08:08:57.000Z,29.70
2022-09-28T08:09:54.594Z,29.67
2022-09-28T08:11:54.290Z,30.11
2022-09-28T08:13:02.163Z,30.31
2022-09-28T08:13:56.700Z,30.37
2022-09-28T08:15:01.678Z,30.46
2022-09-28T08:15:58.380Z,30.53
2022-09-28T08:16:58.932Z,30.38
2022-09-28T08:18:02.932Z,30.22
2022-09-28T08:19:00.019Z,30.07
2022-09-28T08:20:01.032Z,30.00
2022-09-28T08:21:01.167Z,30.01
2022-09-28T08:22:01.660Z,29.97
2022-09-28T08:23:02.671Z,29.89
2022-09-28T08:24:03.286Z,29.82
2022-09-28T08:25:03.812Z,29.78
2022-09-28T08:26:04.311Z,29.79
2022-09-28T08:27:04.869Z,29.80
2022-09-28T08:28:05.399Z,29.76
2022-09-28T08:29:05.932Z,29.78
2022-09-28T08:30:06.511Z,29.83
2022-09-28T08:31:07.210Z,29.90
2022-09-28T08:32:07.814Z,30.00
2022-09-28T08:33:08.407Z,30.24
2022-09-28T08:34:08.941Z,30.42
2022-09-28T08:35:09.569Z,30.37
2022-09-28T08:36:10.124Z,30.42
2022-09-28T08:37:10.662Z,30.51
2022-09-28T08:38:11.195Z,30.58
2022-09-28T08:39:11.963Z,30.55
2022-09-28T08:40:12.791Z,30.45
2022-09-28T08:41:13.340Z,30.38
2022-09-28T08:42:13.891Z,30.47
2022-09-28T08:43:14.425Z,30.45
2022-09-28T08:44:14.991Z,30.45
2022-09-28T08:45:15.923Z,30.45
2022-09-28T08:46:16.740Z,30.46
2022-09-28T08:47:17.262Z,30.51
2022-09-28T08:48:17.781Z,30.55
2022-09-28T08:49:25.328Z,30.61
2022-09-28T08:50:19.314Z,30.60
2022-09-28T08:51:19.815Z,30.54
2022-09-28T08:52:20.313Z,30.51
2022-09-28T08:53:20.829Z,30.47
2022-09-28T08:54:21.824Z,30.37
2022-09-28T08:55:22.813Z,30.34
2022-09-28T08:56:23.305Z,30.47
2022-09-28T08:57:23.829Z,30.53
2022-09-28T08:58:24.331Z,30.49
2022-09-28T08:59:24.823Z,30.60
2022-09-28T09:00:26.046Z,31.04
2022-09-28T09:01:26.730Z,31.54
2022-09-28T09:02:27.469Z,31.81
2022-09-28T09:03:27.997Z,31.65
2022-09-28T09:04:28.485Z,31.35
2022-09-28T09:05:29.021Z,31.29
2022-09-28T09:06:29.513Z,31.36
2022-09-28T09:07:30.512Z,31.43
2022-09-28T09:08:31.013Z,31.44
2022-09-28T09:09:31.547Z,31.39
2022-09-28T09:10:32.083Z,31.23
2022-09-28T09:11:32.592Z,31.29
2022-09-28T09:12:33.136Z,31.25
2022-09-28T09:13:33.630Z,31.35
2022-09-28T09:14:34.121Z,31.65
2022-09-28T09:15:34.672Z,31.92
2022-09-28T09:16:35.202Z,32.29
2022-09-28T09:17:35.747Z,32.28
2022-09-28T09:18:36.242Z,32.15
2022-09-28T09:19:36.736Z,31.93
2022-09-28T09:20:37.269Z,31.85
2022-09-28T09:21:37.765Z,31.88
2022-09-28T09:22:38.268Z,31.76
2022-09-28T09:23:38.780Z,31.61
2022-09-28T09:24:39.284Z,31.53
2022-09-28T09:25:39.804Z,31.43
2022-09-28T09:26:40.295Z,31.25
2022-09-28T09:27:41.382Z,31.26
2022-09-28T09:28:41.887Z,31.26
2022-09-28T09:29:42.395Z,31.25
2022-09-28T09:30:42.973Z,31.21
2022-09-28T09:31:43.514Z,31.19
2022-09-28T09:32:44.014Z,31.13
2022-09-28T09:33:44.530Z,31.02
2022-09-28T09:34:45.053Z,30.91
2022-09-28T09:35:45.590Z,30.88
2022-09-28T09:36:46.100Z,31.16
2022-09-28T09:37:46.594Z,31.78
2022-09-28T09:38:47.089Z,32.22
2022-09-28T09:39:47.724Z,32.72
2022-09-28T09:40:48.299Z,33.28
2022-09-28T09:41:48.856Z,33.72
2022-09-28T09:42:49.381Z,33.71
2022-09-28T09:43:50.057Z,34.09
2022-09-28T09:44:50.575Z,33.93
2022-09-28T09:45:51.133Z,33.91
2022-09-28T09:46:51.657Z,33.84
2022-09-28T09:47:52.146Z,33.78
2022-09-28T09:48:52.641Z,33.73
2022-09-28T09:49:53.147Z,33.86
2022-09-28T09:50:53.730Z,33.90
2022-09-28T09:51:58.824Z,34.35
2022-09-28T09:52:54.924Z,34.42
2022-09-28T09:53:55.758Z,34.28
2022-09-28T09:54:56.327Z,33.95
2022-09-28T09:55:56.927Z,33.76
2022-09-28T09:56:57.426Z,33.66
2022-09-28T09:57:57.957Z,33.95
2022-09-28T09:58:58.466Z,34.47
2022-09-28T09:59:58.981Z,34.85
2022-09-28T10:00:59.689Z,35.40
2022-09-28T10:02:00.297Z,35.87
2022-09-28T10:03:00.846Z,36.09
2022-09-28T10:04:01.389Z,36.25
2022-09-28T10:05:01.896Z,36.31
2022-09-28T10:06:02.427Z,36.13
2022-09-28T10:07:02.927Z,36.08
2022-09-28T10:08:03.419Z,36.03
2022-09-28T10:09:09.404Z,35.89
2022-09-28T10:10:06.363Z,36.08
2022-09-28T10:11:05.407Z,36.34
2022-09-28T10:12:05.916Z,36.64
2022-09-28T10:13:06.468Z,36.98
2022-09-28T10:14:06.972Z,37.07
2022-09-28T10:15:07.477Z,37.51
2022-09-28T10:16:08.517Z,37.86
2022-09-28T10:17:11.344Z,37.69
2022-09-28T10:18:23.108Z,36.94
2022-09-28T10:19:10.399Z,36.39
2022-09-28T10:20:10.910Z,36.09
2022-09-28T10:21:11.438Z,35.74
2022-09-28T10:22:11.942Z,35.60
2022-09-28T10:23:12.444Z,35.45
2022-09-28T10:24:12.942Z,35.89
2022-09-28T10:25:13.455Z,36.57
2022-09-28T10:26:13.998Z,36.91
2022-09-28T10:27:14.494Z,36.94
2022-09-28T10:28:15.015Z,37.40
2022-09-28T10:29:15.655Z,37.84
2022-09-28T10:30:16.210Z,38.00
2022-09-28T10:31:16.742Z,38.22
2022-09-28T10:32:17.235Z,38.20
2022-09-28T10:33:17.736Z,37.66
2022-09-28T10:34:18.351Z,36.81
2022-09-28T10:35:18.905Z,36.73
2022-09-28T10:36:19.432Z,36.54
2022-09-28T10:37:19.931Z,36.32
2022-09-28T10:38:20.427Z,35.53
2022-09-28T10:39:20.935Z,35.22
2022-09-28T10:40:21.489Z,34.80
2022-09-28T10:41:22.072Z,34.65
2022-09-28T10:42:22.575Z,35.07
2022-09-28T10:43:23.095Z,35.70
2022-09-28T10:44:23.600Z,35.78
2022-09-28T10:45:24.099Z,35.80
2022-09-28T10:46:24.735Z,35.62
2022-09-28T10:47:25.275Z,35.23
2022-09-28T10:48:25.770Z,34.80
2022-09-28T10:49:26.273Z,34.35
2022-09-28T10:50:26.779Z,33.81
2022-09-28T10:51:27.425Z,33.44
2022-09-28T10:52:27.919Z,33.34
2022-09-28T10:53:28.422Z,34.19
2022-09-28T10:54:28.917Z,34.37
2022-09-28T10:55:29.414Z,34.88
2022-09-28T10:56:29.939Z,35.71
2022-09-28T10:57:30.436Z,35.77
2022-09-28T10:58:30.956Z,36.37
2022-09-28T10:59:31.462Z,36.71
2022-09-28T11:00:31.982Z,36.07
2022-09-28T11:01:32.724Z,36.25
2022-09-28T11:02:35.927Z,36.72
2022-09-28T11:03:33.797Z,37.46
2022-09-28T11:04:34.289Z,38.22
2022-09-28T11:05:46.009Z,38.16
2022-09-28T11:06:37.443Z,38.13
2022-09-28T11:07:36.439Z,38.61
2022-09-28T11:08:36.939Z,38.46
2022-09-28T11:09:37.432Z,38.88
2022-09-28T11:10:37.929Z,38.81
2022-09-28T11:11:38.965Z,38.60
2022-09-28T11:12:39.474Z,38.90
2022-09-28T11:13:40.006Z,39.07
2022-09-28T11:14:42.652Z,39.01
2022-09-28T11:15:41.288Z,39.26
2022-09-28T11:16:41.904Z,39.94
2022-09-28T11:17:42.475Z,40.29
2022-09-28T11:18:42.974Z,40.76
2022-09-28T11:19:43.482Z,41.18
2022-09-28T11:20:45.518Z,41.23
2022-09-28T11:21:44.654Z,40.96
2022-09-28T11:22:45.171Z,41.06
2022-09-28T11:23:45.678Z,41.11
2022-09-28T11:24:46.182Z,41.16
2022-09-28T11:25:46.677Z,41.07
2022-09-28T11:26:47.716Z,40.96
2022-09-28T11:27:48.283Z,41.08
2022-09-28T11:28:48.810Z,40.95
2022-09-28T11:29:49.315Z,41.01
2022-09-28T11:30:49.899Z,41.04
2022-09-28T11:31:50.463Z,41.25
2022-09-28T11:32:50.972Z,41.36
2022-09-28T11:33:51.487Z,41.26
2022-09-28T11:34:59.634Z,41.25
2022-09-28T11:35:52.842Z,41.57
2022-09-28T11:36:53.369Z,41.83
2022-09-28T11:37:53.861Z,42.21
2022-09-28T11:38:54.352Z,42.68
2022-09-28T11:39:55.366Z,43.08
2022-09-28T11:40:55.921Z,43.76
2022-09-28T11:41:56.494Z,44.10
2022-09-28T11:42:57.054Z,43.68
2022-09-28T11:43:57.619Z,43.19
2022-09-28T11:44:58.136Z,42.59
2022-09-28T11:45:58.695Z,42.42
2022-09-28T11:46:59.244Z,42.49
2022-09-28T11:47:59.745Z,42.77
2022-09-28T11:49:00.244Z,43.19
2022-09-28T11:50:00.759Z,43.41
2022-09-28T11:51:01.256Z,43.11
2022-09-28T11:52:01.979Z,42.96
2022-09-28T11:53:02.518Z,43.15
2022-09-28T11:54:03.016Z,42.98
2022-09-28T11:55:03.516Z,42.61
2022-09-28T11:56:08.514Z,42.23
2022-09-28T11:57:04.912Z,41.96
2022-09-28T11:58:05.420Z,42.02
2022-09-28T11:59:05.953Z,41.93
2022-09-28T12:00:06.450Z,41.66
2022-09-28T12:01:07.447Z,41.64
2022-09-28T12:02:08.652Z,41.83
2022-09-28T12:03:09.375Z,42.33
2022-09-28T12:04:10.026Z,42.47
2022-09-28T12:05:10.526Z,42.78
2022-09-28T12:06:11.028Z,43.56
2022-09-28T12:07:11.560Z,44.29
2022-09-28T12:08:12.054Z,44.36
2022-09-28T12:09:12.587Z,44.32
2022-09-28T12:10:13.101Z,43.91
2022-09-28T12:11:13.621Z,44.22
2022-09-28T12:12:14.149Z,44.29
2022-09-28T12:13:14.653Z,45.01
2022-09-28T12:14:15.191Z,45.76
2022-09-28T12:15:15.691Z,46.45
2022-09-28T12:16:53.100Z,46.76
2022-09-28T12:17:20.098Z,46.76
2022-09-28T12:18:17.888Z,47.12
2022-09-28T12:19:18.575Z,47.03
2022-09-28T12:20:19.104Z,46.84
2022-09-28T12:21:19.607Z,46.95
2022-09-28T12:22:20.140Z,46.90
2022-09-28T12:23:20.646Z,46.78
2022-09-28T12:24:21.148Z,46.71
2022-09-28T12:25:21.656Z,46.53
2022-09-28T12:26:22.162Z,46.50
2022-09-28T12:27:22.704Z,46.45
2022-09-28T12:28:23.207Z,46.31
2022-09-28T12:29:23.728Z,46.12
2022-09-28T12:30:24.231Z,45.92
2022-09-28T12:31:24.829Z,45.58
2022-09-28T12:32:25.368Z,45.60
2022-09-28T12:33:25.871Z,45.69
2022-09-28T12:34:26.368Z,45.81
2022-09-28T12:35:26.868Z,45.84
2022-09-28T12:36:27.365Z,45.76
2022-09-28T12:37:28.424Z,45.60
2022-09-28T12:38:28.939Z,45.45
2022-09-28T12:39:46.998Z,45.14
2022-09-28T12:40:30.483Z,45.16
2022-09-28T12:41:31.055Z,44.98
2022-09-28T12:42:31.588Z,45.00
2022-09-28T12:43:32.094Z,44.98
2022-09-28T12:44:32.646Z,45.31
2022-09-28T12:45:42.888Z,45.10
2022-09-28T12:46:34.020Z,44.73
2022-09-28T12:47:34.606Z,44.48
2022-09-28T12:48:35.110Z,44.50
2022-09-28T12:50:39.947Z,44.80
2022-09-28T12:51:37.266Z,45.08
2022-09-28T12:52:37.951Z,45.14
2022-09-28T12:53:38.492Z,45.33
2022-09-28T12:54:38.991Z,45.17
2022-09-28T12:55:39.498Z,45.00
2022-09-28T12:56:40.011Z,44.88
2022-09-28T12:57:40.535Z,45.02
2022-09-28T12:58:41.035Z,45.07
2022-09-28T12:59:41.565Z,44.88
2022-09-28T13:00:42.071Z,44.83
2022-09-28T13:01:42.649Z,44.51
2022-09-28T13:02:43.335Z,44.21
2022-09-28T13:03:43.888Z,43.90